Time;durP1;ratioP1;P1;durP2;ratioP2;P2;SDS_P1;SDS_P2;PMS_P1;PMS_P2;Temp;Humidity;BMP_temperature;BMP_pressure;BME280_temperature;BME280_humidity;BME280_pressure;Samples;Min_cycle;Max_cycle;Signal;HPM_P1;HPM_P2
2021/01/06 00:01:26;;;;;;;5.53;2.47;;;3.60;99.90;;;;;;5135517;27;20202;-47
2021/01/06 00:03:53;;;;;;;5.93;4.25;;;3.60;99.90;;;;;;5135405;27;20193;-51
2021/01/06 00:06:25;;;;;;;4.43;2.92;;;3.60;99.90;;;;;;5116775;27;20190;-50
2021/01/06 00:08:54;;;;;;;2.88;2.50;;;3.60;99.90;;;;;;5135638;27;20171;-48
2021/01/06 00:11:30;;;;;;;3.80;2.60;;;3.60;99.90;;;;;;5135079;27;20537;-51
2021/01/06 00:13:58;;;;;;;2.35;2.15;;;3.60;99.90;;;;;;5135061;27;20227;-47
2021/01/06 00:16:25;;;;;;;2.30;1.85;;;3.60;99.90;;;;;;5135124;27;20222;-50
2021/01/06 00:18:52;;;;;;;2.28;1.92;;;3.60;99.90;;;;;;5135508;27;20630;-49
2021/01/06 00:21:20;;;;;;;2.97;2.53;;;3.60;99.90;;;;;;5135503;27;20202;-47
2021/01/06 00:23:47;;;;;;;3.60;3.15;;;3.60;99.90;;;;;;5135477;27;20181;-51
2021/01/06 00:26:15;;;;;;;2.38;1.90;;;3.60;99.90;;;;;;5135257;27;20265;-55
2021/01/06 00:28:43;;;;;;;2.65;2.30;;;3.60;99.90;;;;;;5134924;27;20175;-50
2021/01/06 00:31:10;;;;;;;3.03;1.77;;;3.60;99.90;;;;;;5135205;27;20634;-47
2021/01/06 00:33:37;;;;;;;4.68;2.88;;;3.60;99.90;;;;;;5134622;27;20180;-51
2021/01/06 00:36:08;;;;;;;3.00;2.40;;;3.50;99.90;;;;;;5134929;27;20189;-49
2021/01/06 00:38:38;;;;;;;8.90;4.25;;;3.50;99.90;;;;;;5135116;27;20692;-48
2021/01/06 00:41:05;;;;;;;2.00;1.85;;;3.50;99.90;;;;;;5134587;27;20197;-47
2021/01/06 00:43:33;;;;;;;3.35;2.53;;;3.50;99.90;;;;;;5134936;27;20635;-46
2021/01/06 00:46:00;;;;;;;5.75;3.03;;;3.60;99.90;;;;;;5134806;27;20206;-47
2021/01/06 00:48:28;;;;;;;1.80;1.70;;;3.60;99.90;;;;;;5116316;27;20628;-53
2021/01/06 00:50:59;;;;;;;4.32;2.17;;;3.50;99.90;;;;;;5134572;27;20221;-52
2021/01/06 00:53:28;;;;;;;2.92;2.50;;;3.50;99.90;;;;;;5116604;27;20243;-48
2021/01/06 00:56:05;;;;;;;2.63;1.77;;;3.50;99.90;;;;;;5134491;27;20181;-49
2021/01/06 00:58:36;;;;;;;5.20;2.45;;;3.50;99.90;;;;;;5134266;27;20182;-54
2021/01/06 01:01:09;;;;;;;2.13;1.92;;;3.50;99.90;;;;;;5116027;27;20262;-52
2021/01/06 01:03:41;;;;;;;3.33;2.92;;;3.50;99.90;;;;;;5116439;27;20186;-49
2021/01/06 01:06:09;;;;;;;2.65;1.88;;;3.40;99.90;;;;;;5116692;27;20235;-47
2021/01/06 01:08:36;;;;;;;3.47;1.70;;;3.50;99.90;;;;;;5134609;27;20178;-47
2021/01/06 01:11:03;;;;;;;2.15;1.95;;;3.50;99.90;;;;;;5134178;27;20210;-46
2021/01/06 01:13:30;;;;;;;2.08;1.90;;;3.40;99.90;;;;;;5133962;27;20186;-48
2021/01/06 01:15:59;;;;;;;2.20;1.35;;;3.40;99.90;;;;;;5134328;27;20262;-47
2021/01/06 01:18:28;;;;;;;2.10;1.90;;;3.40;99.90;;;;;;5115466;27;20682;-49
2021/01/06 01:20:57;;;;;;;1.90;1.20;;;3.40;99.90;;;;;;5134061;27;20213;-49
2021/01/06 01:23:26;;;;;;;1.67;0.80;;;3.30;99.90;;;;;;5133018;27;20170;-48
2021/01/06 01:25:54;;;;;;;2.35;1.33;;;3.40;99.90;;;;;;5133965;27;20646;-47
2021/01/06 01:28:22;;;;;;;2.30;2.10;;;3.30;99.90;;;;;;5133477;27;20566;-49
2021/01/06 01:30:50;;;;;;;2.97;1.88;;;3.30;99.90;;;;;;5133377;27;20213;-48
2021/01/06 01:33:19;;;;;;;5.40;1.80;;;3.30;99.90;;;;;;5133498;27;20742;-47
2021/01/06 01:35:47;;;;;;;1.00;0.90;;;3.30;99.90;;;;;;5133493;27;20663;-54
2021/01/06 01:38:16;;;;;;;3.15;1.17;;;3.30;99.90;;;;;;5133317;27;20213;-49
2021/01/06 01:40:43;;;;;;;3.35;2.13;;;3.30;99.90;;;;;;5114416;27;20224;-51
2021/01/06 01:43:18;;;;;;;1.70;1.20;;;3.30;99.90;;;;;;5132807;27;20556;-53
2021/01/06 01:46:34;;;;;;;1.50;1.05;;;3.30;99.90;;;;;;5114778;27;20678;-51
2021/01/06 01:49:05;;;;;;;2.67;1.42;;;3.30;99.90;;;;;;5132801;27;20178;-55
2021/01/06 01:51:39;;;;;;;4.80;2.22;;;3.20;99.90;;;;;;5132844;27;20217;-50
2021/01/06 01:54:07;;;;;;;1.90;1.10;;;3.20;99.90;;;;;;5132536;27;20178;-48
2021/01/06 01:56:41;;;;;;;3.05;1.58;;;3.20;99.90;;;;;;5132396;27;20739;-54
2021/01/06 01:59:15;;;;;;;1.70;1.30;;;3.20;99.90;;;;;;5133062;27;20186;-47
2021/01/06 02:01:46;;;;;;;1.90;1.40;;;3.20;99.90;;;;;;5133034;27;20178;-49
2021/01/06 02:04:18;;;;;;;2.25;1.35;;;3.20;99.90;;;;;;5132945;28;20174;-53
2021/01/06 02:06:56;;;;;;;1.55;0.80;;;3.20;99.90;;;;;;5133534;28;20171;-53
2021/01/06 02:09:30;;;;;;;2.45;1.05;;;3.20;99.90;;;;;;5133582;28;20639;-56
2021/01/06 02:12:07;;;;;;;1.38;1.25;;;3.20;99.90;;;;;;5133628;28;20185;-50
2021/01/06 02:14:39;;;;;;;1.85;1.58;;;3.30;99.90;;;;;;5133751;28;20267;-48
2021/01/06 02:17:11;;;;;;;1.60;1.27;;;3.20;99.90;;;;;;5133700;28;20197;-52
2021/01/06 02:19:41;;;;;;;2.67;1.70;;;3.20;99.90;;;;;;5133602;28;20602;-54
2021/01/06 02:22:12;;;;;;;2.30;2.10;;;3.20;99.90;;;;;;5133666;28;20170;-56
2021/01/06 02:24:40;;;;;;;1.10;0.70;;;3.20;99.90;;;;;;5133648;28;20174;-51
2021/01/06 02:27:07;;;;;;;1.75;1.10;;;3.20;99.90;;;;;;5133427;28;20707;-53
2021/01/06 02:29:37;;;;;;;1.30;0.88;;;3.20;99.90;;;;;;5132429;28;20202;-49
2021/01/06 02:32:05;;;;;;;1.25;1.15;;;3.10;99.90;;;;;;5132129;28;20217;-53
2021/01/06 02:34:34;;;;;;;1.08;0.98;;;3.10;99.90;;;;;;5135820;27;20183;-50
2021/01/06 02:37:02;;;;;;;2.60;1.25;;;3.10;99.90;;;;;;5136874;27;20263;-53
2021/01/06 02:39:31;;;;;;;1.00;0.90;;;3.10;99.90;;;;;;5137085;27;20300;-55
2021/01/06 02:41:58;;;;;;;1.98;1.00;;;3.10;99.90;;;;;;5136934;27;20261;-51
2021/01/06 02:44:25;;;;;;;2.05;1.73;;;3.00;99.90;;;;;;5137527;27;20178;-48
2021/01/06 02:46:54;;;;;;;1.25;1.10;;;3.00;99.90;;;;;;5137498;27;20167;-50
2021/01/06 02:49:22;;;;;;;1.23;1.13;;;3.00;99.90;;;;;;5137461;27;20665;-53
2021/01/06 02:51:53;;;;;;;2.10;1.13;;;3.10;99.90;;;;;;5136417;27;20626;-57
2021/01/06 02:54:25;;;;;;;1.95;1.10;;;3.00;99.90;;;;;;5136181;27;20272;-55
2021/01/06 02:56:58;;;;;;;1.65;0.90;;;3.00;99.90;;;;;;5135931;27;20194;-54
2021/01/06 02:59:30;;;;;;;2.60;0.80;;;3.00;99.90;;;;;;5136000;27;20220;-53
2021/01/06 03:01:58;;;;;;;1.17;1.02;;;3.00;99.90;;;;;;5136002;27;20185;-51
2021/01/06 03:04:28;;;;;;;1.85;0.80;;;3.00;99.90;;;;;;5137013;27;20197;-50
2021/01/06 03:06:59;;;;;;;1.10;1.00;;;3.00;99.90;;;;;;5119071;27;20202;-52
2021/01/06 03:09:31;;;;;;;1.13;0.90;;;3.00;99.90;;;;;;5136990;27;20170;-50
2021/01/06 03:12:04;;;;;;;1.35;1.25;;;2.90;99.90;;;;;;5137107;27;20253;-49
2021/01/06 03:14:34;;;;;;;1.75;1.10;;;2.90;99.90;;;;;;5137746;27;20173;-53
2021/01/06 03:17:04;;;;;;;3.17;1.13;;;2.90;99.90;;;;;;5136906;27;20277;-52
2021/01/06 03:19:35;;;;;;;1.92;1.00;;;2.90;99.90;;;;;;5136487;27;20202;-49
2021/01/06 03:22:05;;;;;;;2.25;0.90;;;2.90;99.90;;;;;;5136224;27;20654;-49
2021/01/06 03:24:36;;;;;;;2.35;0.70;;;2.90;99.90;;;;;;5136650;27;20174;-58
2021/01/06 03:27:06;;;;;;;0.90;0.70;;;2.90;99.90;;;;;;5136680;27;20171;-54
2021/01/06 03:29:36;;;;;;;1.00;0.70;;;2.80;99.90;;;;;;5135753;27;20224;-53
2021/01/06 03:32:09;;;;;;;1.75;0.77;;;2.80;99.90;;;;;;5135739;27;20170;-55
2021/01/06 03:34:41;;;;;;;1.20;0.80;;;2.80;99.90;;;;;;5135220;27;20179;-49
2021/01/06 03:37:15;;;;;;;1.10;1.00;;;2.80;99.90;;;;;;5116968;27;20228;-55
2021/01/06 03:39:48;;;;;;;1.88;0.93;;;2.80;99.90;;;;;;5116908;27;20650;-48
2021/01/06 03:42:17;;;;;;;1.00;0.85;;;2.80;99.90;;;;;;5135034;27;20177;-55
2021/01/06 03:44:46;;;;;;;1.30;0.73;;;2.70;99.90;;;;;;5116059;28;20689;-51
2021/01/06 03:47:19;;;;;;;1.33;1.23;;;2.70;99.90;;;;;;5135110;27;20602;-52
2021/01/06 03:49:55;;;;;;;0.70;0.50;;;2.70;99.90;;;;;;5134978;27;20240;-52
2021/01/06 03:52:32;;;;;;;1.05;0.90;;;2.70;99.90;;;;;;5134920;27;20174;-54
2021/01/06 03:55:04;;;;;;;0.98;0.88;;;2.70;99.90;;;;;;5135092;27;20173;-55
2021/01/06 03:57:33;;;;;;;0.90;0.70;;;2.70;99.90;;;;;;5134859;27;20217;-48
2021/01/06 04:00:04;;;;;;;1.08;0.82;;;2.70;99.90;;;;;;5135791;27;20214;-51
2021/01/06 04:02:39;;;;;;;1.00;0.70;;;2.70;99.90;;;;;;5136212;27;20170;-50
2021/01/06 04:05:12;;;;;;;0.70;0.52;;;2.70;99.90;;;;;;5136081;27;20178;-54
2021/01/06 04:07:43;;;;;;;0.88;0.70;;;2.70;99.90;;;;;;5135949;27;20170;-55
2021/01/06 04:10:13;;;;;;;1.00;0.90;;;2.60;99.90;;;;;;5135823;27;20739;-55
2021/01/06 04:12:42;;;;;;;1.02;0.80;;;2.60;99.90;;;;;;5135391;27;20185;-58
2021/01/06 04:15:12;;;;;;;0.85;0.68;;;2.60;99.90;;;;;;5135206;27;20170;-53
2021/01/06 04:17:41;;;;;;;2.00;0.70;;;2.60;99.90;;;;;;5116678;27;20240;-47
2021/01/06 04:20:27;;;;;;;0.80;0.60;;;2.60;99.90;;;;;;5134887;27;20240;-49
2021/01/06 04:22:56;;;;;;;1.02;0.70;;;2.60;99.90;;;;;;5134862;27;20189;-50
2021/01/06 04:25:26;;;;;;;0.70;0.60;;;2.60;99.90;;;;;;5134752;27;20210;-48
2021/01/06 04:27:57;;;;;;;0.75;0.57;;;2.60;99.90;;;;;;5134941;27;20166;-48
2021/01/06 04:30:31;;;;;;;1.00;0.77;;;2.50;99.90;;;;;;5134670;27;20214;-52
2021/01/06 04:32:59;;;;;;;1.10;0.60;;;2.50;99.90;;;;;;5134493;27;20174;-49
2021/01/06 04:35:28;;;;;;;1.13;0.60;;;2.50;99.90;;;;;;5134706;27;20209;-52
2021/01/06 04:37:56;;;;;;;0.80;0.75;;;2.40;99.90;;;;;;5134851;27;20294;-55
2021/01/06 04:40:26;;;;;;;1.98;1.15;;;2.40;99.90;;;;;;5134357;27;20206;-51
2021/01/06 04:43:02;;;;;;;1.20;0.70;;;2.40;99.90;;;;;;5134914;27;20186;-48
2021/01/06 04:45:35;;;;;;;1.00;0.60;;;2.40;99.90;;;;;;5134900;27;20174;-48
2021/01/06 04:48:19;;;;;;;1.42;0.65;;;2.40;99.90;;;;;;5134192;27;20174;-49
2021/01/06 04:51:23;;;;;;;0.70;0.50;;;2.30;99.90;;;;;;5134214;27;20223;-55
2021/01/06 04:54:30;;;;;;;0.93;0.60;;;2.30;99.90;;;;;;5134312;27;20178;-55
2021/01/06 04:57:08;;;;;;;1.02;0.50;;;2.30;99.90;;;;;;5098760;27;20208;-49
2021/01/06 04:59:54;;;;;;;0.70;0.50;;;2.30;99.90;;;;;;5133940;27;20224;-49
2021/01/06 05:02:36;;;;;;;0.80;0.60;;;2.20;99.90;;;;;;5133780;27;20184;-52
2021/01/06 05:05:32;;;;;;;1.75;0.73;;;2.20;99.90;;;;;;5134125;27;20174;-49
2021/01/06 05:08:11;;;;;;;1.00;0.60;;;2.30;99.90;;;;;;5130401;27;20190;-54
2021/01/06 05:10:42;;;;;;;0.85;0.57;;;2.30;99.90;;;;;;5133830;27;20250;-50
2021/01/06 05:13:20;;;;;;;0.90;0.70;;;2.30;99.90;;;;;;5133787;27;20171;-52
2021/01/06 05:15:55;;;;;;;0.80;0.60;;;2.30;99.90;;;;;;5134148;27;20543;-50
2021/01/06 05:18:22;;;;;;;1.27;0.63;;;2.30;99.90;;;;;;5134251;27;20200;-49
2021/01/06 05:20:50;;;;;;;0.80;0.60;;;2.20;99.90;;;;;;5133541;27;20197;-53
2021/01/06 05:23:20;;;;;;;0.90;0.70;;;2.20;99.90;;;;;;5133540;27;20587;-52
2021/01/06 05:25:48;;;;;;;0.70;0.50;;;2.20;99.90;;;;;;5133546;27;20174;-47
2021/01/06 05:28:19;;;;;;;0.70;0.50;;;2.20;99.90;;;;;;5115296;27;20235;-50
2021/01/06 05:30:52;;;;;;;0.85;0.55;;;2.20;99.90;;;;;;5115489;27;20635;-50
2021/01/06 05:33:26;;;;;;;0.70;0.50;;;2.20;99.90;;;;;;5115357;27;20731;-52
2021/01/06 05:35:53;;;;;;;1.15;0.60;;;2.20;99.90;;;;;;5133416;27;20184;-54
2021/01/06 05:38:21;;;;;;;1.20;0.70;;;2.10;99.90;;;;;;5133378;27;20584;-52
2021/01/06 05:40:48;;;;;;;1.10;0.90;;;2.20;99.90;;;;;;5133305;27;20202;-51
2021/01/06 05:43:38;;;;;;;0.95;0.85;;;2.10;99.90;;;;;;5133041;27;20241;-54
2021/01/06 05:46:13;;;;;;;1.05;0.68;;;2.10;99.90;;;;;;5133280;27;20184;-55
2021/01/06 05:48:44;;;;;;;1.05;0.80;;;2.10;99.90;;;;;;5134128;27;20174;-55
2021/01/06 05:51:17;;;;;;;0.93;0.70;;;2.00;99.90;;;;;;5133048;27;20221;-52
2021/01/06 05:53:46;;;;;;;0.90;0.75;;;2.00;99.90;;;;;;5114774;28;20194;-54
2021/01/06 05:56:32;;;;;;;1.40;0.70;;;2.00;99.90;;;;;;5133002;27;20192;-51
2021/01/06 05:59:12;;;;;;;0.80;0.68;;;2.00;99.90;;;;;;5133055;27;20221;-50
2021/01/06 06:01:47;;;;;;;0.80;0.65;;;2.00;99.90;;;;;;5133057;27;20174;-47
2021/01/06 06:04:29;;;;;;;1.30;0.90;;;2.00;99.90;;;;;;5132845;27;20181;-50
2021/01/06 06:07:23;;;;;;;0.70;0.50;;;2.00;99.90;;;;;;5132980;28;20623;-54
2021/01/06 06:10:19;;;;;;;0.80;0.60;;;2.00;99.90;;;;;;5132407;28;20292;-50
2021/01/06 06:13:03;;;;;;;1.45;0.80;;;2.00;99.90;;;;;;5132855;28;20630;-49
2021/01/06 06:16:17;;;;;;;0.90;0.70;;;2.00;99.90;;;;;;5133013;28;20537;-52
2021/01/06 06:19:16;;;;;;;2.50;0.80;;;2.00;99.90;;;;;;5132978;28;20666;-55
2021/01/06 06:21:54;;;;;;;0.70;0.50;;;1.90;99.90;;;;;;5132920;28;20182;-53
2021/01/06 06:24:38;;;;;;;1.08;0.65;;;2.00;99.90;;;;;;5132764;28;20171;-53
2021/01/06 06:27:32;;;;;;;1.05;0.70;;;1.90;99.90;;;;;;5130895;28;20198;-49
2021/01/06 06:30:26;;;;;;;0.80;0.60;;;1.80;99.90;;;;;;5122463;28;20226;-50
2021/01/06 06:32:54;;;;;;;1.92;1.15;;;1.80;99.90;;;;;;5128681;28;20194;-51
2021/01/06 06:35:26;;;;;;;0.98;0.70;;;1.80;99.90;;;;;;5114648;28;20179;-47
2021/01/06 06:37:56;;;;;;;1.80;0.70;;;1.80;99.90;;;;;;5133483;28;20255;-52
2021/01/06 06:40:24;;;;;;;1.55;0.95;;;1.80;99.90;;;;;;5133483;28;20230;-49
2021/01/06 06:42:57;;;;;;;2.10;0.70;;;1.70;99.90;;;;;;5133973;28;20178;-51
2021/01/06 06:45:42;;;;;;;1.00;0.90;;;1.70;99.90;;;;;;5133571;28;20231;-47
2021/01/06 06:48:16;;;;;;;0.90;0.60;;;1.60;99.90;;;;;;5133555;28;20171;-47
2021/01/06 06:51:00;;;;;;;1.00;0.77;;;1.50;99.90;;;;;;5114317;28;20217;-50
2021/01/06 06:53:37;;;;;;;1.10;0.80;;;1.50;99.90;;;;;;5114026;28;20215;-50
2021/01/06 06:56:15;;;;;;;1.33;1.02;;;1.60;99.90;;;;;;5132270;28;20645;-53
2021/01/06 06:58:49;;;;;;;1.65;0.90;;;1.50;99.90;;;;;;5132902;28;20190;-50
2021/01/06 07:01:22;;;;;;;1.00;0.90;;;1.50;99.90;;;;;;5114222;28;20213;-52
2021/01/06 07:03:57;;;;;;;1.10;1.00;;;1.40;99.90;;;;;;5114256;28;20182;-50
2021/01/06 07:06:26;;;;;;;1.30;0.80;;;1.50;99.90;;;;;;5132868;28;20240;-47
2021/01/06 07:08:56;;;;;;;1.00;0.80;;;1.40;99.90;;;;;;5131915;28;20178;-53
2021/01/06 07:11:27;;;;;;;1.10;0.98;;;1.40;99.90;;;;;;5132047;28;20500;-50
2021/01/06 07:14:03;;;;;;;0.80;0.60;;;1.40;99.90;;;;;;5132204;28;20185;-47
2021/01/06 07:16:42;;;;;;;0.95;0.70;;;1.40;99.90;;;;;;5132721;28;20174;-52
2021/01/06 07:19:29;;;;;;;0.90;0.68;;;1.40;99.90;;;;;;5131748;27;20190;-54
2021/01/06 07:22:12;;;;;;;0.80;0.60;;;1.50;99.90;;;;;;5116596;27;20178;-50
2021/01/06 07:24:40;;;;;;;2.88;1.58;;;1.50;99.90;;;;;;5135982;27;20801;-53
2021/01/06 07:27:08;;;;;;;1.00;0.63;;;1.50;99.90;;;;;;5135778;27;20178;-49
2021/01/06 07:29:45;;;;;;;1.15;0.80;;;1.40;99.90;;;;;;5135313;27;20209;-48
2021/01/06 07:32:14;;;;;;;1.17;0.55;;;1.50;99.90;;;;;;5135771;27;20649;-50
2021/01/06 07:34:48;;;;;;;0.70;0.55;;;1.50;99.90;;;;;;5135288;27;20178;-48
2021/01/06 07:37:35;;;;;;;0.70;0.50;;;1.50;99.90;;;;;;5135583;27;20178;-47
2021/01/06 07:40:19;;;;;;;1.63;0.73;;;1.50;99.90;;;;;;5135705;27;20709;-49
2021/01/06 07:42:49;;;;;;;1.15;1.02;;;1.50;99.90;;;;;;5135686;27;20186;-56
2021/01/06 07:45:28;;;;;;;1.27;1.20;;;1.60;99.90;;;;;;5116483;27;20281;-50
2021/01/06 07:48:26;;;;;;;0.80;0.60;;;1.50;99.90;;;;;;5135108;27;20166;-50
2021/01/06 07:51:01;;;;;;;1.30;0.98;;;1.50;99.90;;;;;;5135154;27;20224;-48
2021/01/06 07:53:38;;;;;;;0.98;0.60;;;1.50;99.90;;;;;;5135385;27;20598;-51
2021/01/06 07:56:15;;;;;;;1.10;0.80;;;1.50;99.90;;;;;;5135080;27;20174;-51
2021/01/06 07:58:45;;;;;;;1.60;0.73;;;1.60;99.90;;;;;;5135057;27;20692;-55
2021/01/06 08:01:30;;;;;;;1.08;0.70;;;1.60;99.90;;;;;;5135604;27;20198;-50
2021/01/06 08:04:01;;;;;;;1.98;1.02;;;1.50;99.90;;;;;;5135649;27;20182;-46
2021/01/06 08:06:45;;;;;;;1.60;1.50;;;1.60;99.90;;;;;;5135052;27;20198;-53
2021/01/06 08:09:30;;;;;;;1.40;0.90;;;1.60;99.90;;;;;;5116660;27;20235;-53
2021/01/06 08:11:59;;;;;;;2.05;1.08;;;1.60;99.90;;;;;;5134996;27;20520;-51
2021/01/06 08:14:29;;;;;;;0.73;0.60;;;1.60;99.90;;;;;;5116274;27;20193;-48
2021/01/06 08:17:01;;;;;;;1.00;0.80;;;1.60;99.90;;;;;;5134659;27;20186;-50
2021/01/06 08:19:34;;;;;;;1.25;1.05;;;1.60;99.90;;;;;;5133173;27;20186;-51
2021/01/06 08:22:13;;;;;;;1.67;1.27;;;1.60;99.90;;;;;;5130011;27;20181;-56
2021/01/06 08:24:45;;;;;;;1.35;1.05;;;1.60;99.90;;;;;;5134108;27;20653;-55
2021/01/06 08:27:14;;;;;;;1.67;1.55;;;1.60;99.90;;;;;;5134778;27;20174;-54
2021/01/06 08:29:42;;;;;;;1.40;1.20;;;1.70;99.90;;;;;;5134775;27;20213;-54
2021/01/06 08:32:23;;;;;;;2.38;0.88;;;1.70;99.90;;;;;;5134117;27;20186;-54
2021/01/06 08:34:58;;;;;;;3.13;1.20;;;1.70;99.90;;;;;;5134499;27;20174;-49
2021/01/06 08:37:31;;;;;;;0.90;0.68;;;1.70;99.90;;;;;;5115953;27;20767;-47
2021/01/06 08:40:02;;;;;;;2.17;1.25;;;1.70;99.90;;;;;;5134705;27;20251;-55
2021/01/06 08:42:41;;;;;;;1.50;1.00;;;1.70;99.90;;;;;;5134532;27;20178;-49
2021/01/06 08:45:20;;;;;;;0.80;0.70;;;1.80;99.90;;;;;;5134972;27;20198;-53
2021/01/06 08:47:48;;;;;;;1.27;1.17;;;1.80;99.90;;;;;;5133922;27;20170;-50
2021/01/06 08:50:31;;;;;;;1.10;0.80;;;1.80;99.90;;;;;;5134266;27;20214;-49
2021/01/06 08:53:01;;;;;;;2.08;1.88;;;1.80;99.90;;;;;;5134355;27;20174;-54
2021/01/06 08:55:32;;;;;;;1.75;1.15;;;1.80;99.90;;;;;;5134013;27;20178;-50
2021/01/06 08:58:05;;;;;;;0.80;0.70;;;1.80;99.90;;;;;;5115453;27;20205;-47
2021/01/06 09:00:38;;;;;;;1.20;0.70;;;1.80;99.90;;;;;;5134183;27;20206;-52
2021/01/06 09:03:21;;;;;;;2.75;2.13;;;1.70;99.90;;;;;;5134354;27;20180;-50
2021/01/06 09:06:15;;;;;;;1.90;1.27;;;1.80;99.90;;;;;;5134442;27;20174;-53
2021/01/06 09:08:47;;;;;;;1.52;1.42;;;1.80;99.90;;;;;;5134486;27;20181;-50
2021/01/06 09:11:20;;;;;;;1.58;1.08;;;2.00;99.90;;;;;;5133832;27;20221;-50
2021/01/06 09:13:56;;;;;;;1.27;0.77;;;2.00;99.90;;;;;;5133878;27;20206;-49
2021/01/06 09:16:28;;;;;;;1.95;1.35;;;1.90;99.90;;;;;;5133982;27;20174;-48
2021/01/06 09:19:01;;;;;;;1.88;1.33;;;2.00;99.90;;;;;;5133683;27;20201;-50
2021/01/06 09:21:31;;;;;;;1.30;1.20;;;2.00;99.90;;;;;;5133861;27;20576;-52
2021/01/06 09:24:07;;;;;;;1.98;1.30;;;2.00;99.90;;;;;;5133458;27;20188;-52
2021/01/06 09:26:37;;;;;;;1.15;0.80;;;2.10;99.90;;;;;;5133678;27;20177;-46
2021/01/06 09:29:07;;;;;;;1.30;0.85;;;2.20;99.90;;;;;;5133833;27;20174;-55
2021/01/06 09:31:40;;;;;;;1.80;1.45;;;2.20;99.90;;;;;;5134038;27;20603;-53
2021/01/06 09:34:09;;;;;;;2.40;1.00;;;2.20;99.90;;;;;;5133963;27;20176;-52
2021/01/06 09:36:37;;;;;;;2.30;1.55;;;2.30;99.90;;;;;;5133478;27;20661;-51
2021/01/06 09:39:07;;;;;;;1.25;0.98;;;2.40;99.90;;;;;;5133145;27;20231;-48
2021/01/06 09:41:37;;;;;;;1.77;1.35;;;2.50;99.90;;;;;;5133110;27;20628;-48
2021/01/06 09:44:07;;;;;;;1.13;1.02;;;2.60;99.90;;;;;;5132787;27;20189;-49
2021/01/06 09:46:42;;;;;;;1.77;1.65;;;2.70;99.90;;;;;;5132886;27;20178;-50
2021/01/06 09:49:14;;;;;;;1.55;0.80;;;2.70;99.90;;;;;;5132718;27;20174;-51
2021/01/06 09:51:47;;;;;;;2.20;1.33;;;2.60;99.90;;;;;;5132956;27;20697;-54
2021/01/06 09:54:17;;;;;;;1.70;0.98;;;2.40;99.90;;;;;;5133018;27;20217;-57
2021/01/06 09:56:45;;;;;;;2.22;0.73;;;2.50;99.90;;;;;;5121817;27;20736;-50
2021/01/06 09:59:21;;;;;;;0.95;0.77;;;2.50;99.90;;;;;;5095208;28;20249;-52
2021/01/06 10:01:55;;;;;;;2.75;1.30;;;2.40;99.90;;;;;;5115099;28;20174;-50
2021/01/06 10:04:24;;;;;;;1.60;0.70;;;2.40;99.90;;;;;;5111888;28;20182;-50
2021/01/06 10:06:58;;;;;;;2.00;1.42;;;2.60;99.90;;;;;;5111948;28;20182;-50
2021/01/06 10:09:30;;;;;;;1.27;0.90;;;2.80;99.90;;;;;;5111967;28;20182;-55
2021/01/06 10:12:12;;;;;;;1.40;1.30;;;2.80;99.90;;;;;;5112660;28;20736;-51
2021/01/06 10:14:58;;;;;;;1.10;0.70;;;2.80;99.90;;;;;;5111507;28;20171;-49
2021/01/06 10:17:27;;;;;;;1.20;1.05;;;2.80;99.90;;;;;;5111644;28;20181;-53
2021/01/06 10:20:02;;;;;;;1.40;1.08;;;2.80;99.90;;;;;;5111381;28;20283;-52
2021/01/06 10:22:40;;;;;;;1.52;1.25;;;2.80;99.90;;;;;;5111379;28;20190;-48
2021/01/06 10:25:39;;;;;;;1.20;0.90;;;2.80;99.90;;;;;;5111293;28;20639;-52
2021/01/06 10:28:12;;;;;;;1.65;1.05;;;2.80;99.90;;;;;;5111151;28;20171;-53
2021/01/06 10:30:39;;;;;;;1.65;0.90;;;2.80;99.90;;;;;;5111168;28;20214;-49
2021/01/06 10:33:14;;;;;;;3.40;1.40;;;2.90;99.90;;;;;;5092949;28;20183;-55
2021/01/06 10:35:45;;;;;;;1.00;0.90;;;3.00;99.90;;;;;;5111700;28;20178;-54
2021/01/06 10:38:28;;;;;;;1.38;0.80;;;2.90;99.90;;;;;;5110969;28;20616;-54
2021/01/06 10:41:11;;;;;;;1.52;1.02;;;2.90;99.90;;;;;;5111769;28;20593;-51
2021/01/06 10:43:42;;;;;;;1.00;0.77;;;2.80;99.90;;;;;;5111097;28;20266;-53
2021/01/06 10:46:39;;;;;;;2.63;1.52;;;2.90;99.90;;;;;;5111019;28;20261;-51
2021/01/06 10:49:11;;;;;;;1.92;1.60;;;2.90;99.90;;;;;;5111604;28;20167;-48
2021/01/06 10:52:17;;;;;;;0.90;0.70;;;2.80;99.90;;;;;;5111036;28;20576;-50
2021/01/06 10:54:52;;;;;;;0.90;0.70;;;2.80;99.90;;;;;;5112875;28;20197;-56
2021/01/06 10:57:26;;;;;;;1.00;0.77;;;2.80;99.90;;;;;;5115311;28;20635;-47
2021/01/06 11:00:14;;;;;;;1.00;0.60;;;2.70;99.90;;;;;;5114757;28;20217;-49
2021/01/06 11:03:20;;;;;;;1.10;0.70;;;2.70;99.90;;;;;;5115033;28;20670;-49
2021/01/06 11:06:04;;;;;;;1.83;0.93;;;2.80;99.90;;;;;;5112597;28;20198;-54
2021/01/06 11:09:18;;;;;;;0.90;0.70;;;2.80;99.90;;;;;;5115083;28;20178;-55
2021/01/06 11:12:14;;;;;;;0.90;0.68;;;2.70;99.90;;;;;;5067254;28;20547;-52
2021/01/06 11:15:04;;;;;;;1.35;1.23;;;2.70;99.90;;;;;;5096292;28;20647;-51
2021/01/06 11:17:34;;;;;;;2.13;1.15;;;2.70;99.90;;;;;;5114970;28;20195;-56
2021/01/06 11:20:24;;;;;;;1.38;0.70;;;2.70;99.90;;;;;;5114902;28;20232;-47
2021/01/06 11:23:13;;;;;;;0.95;0.80;;;2.80;99.90;;;;;;5114653;28;20583;-56
2021/01/06 11:25:48;;;;;;;2.35;1.40;;;2.80;99.90;;;;;;5114594;28;20281;-49
2021/01/06 11:28:41;;;;;;;2.55;1.10;;;2.80;99.90;;;;;;5114754;28;20177;-51
2021/01/06 11:31:25;;;;;;;2.00;0.88;;;3.00;99.90;;;;;;5098115;28;20219;-48
2021/01/06 11:33:56;;;;;;;0.95;0.80;;;3.00;99.90;;;;;;5114217;28;20171;-53
2021/01/06 11:36:44;;;;;;;0.80;0.60;;;3.00;99.90;;;;;;5096609;28;20198;-55
2021/01/06 11:39:14;;;;;;;1.23;0.82;;;3.10;99.90;;;;;;5087199;28;20558;-52
2021/01/06 11:42:05;;;;;;;1.23;0.98;;;3.10;99.90;;;;;;5114589;28;20175;-50
2021/01/06 11:44:37;;;;;;;1.95;0.70;;;3.20;99.90;;;;;;5114507;28;20260;-48
2021/01/06 11:47:24;;;;;;;0.95;0.80;;;3.30;99.90;;;;;;5114409;28;20194;-53
2021/01/06 11:49:56;;;;;;;0.90;0.70;;;3.40;99.90;;;;;;5114452;28;20210;-49
2021/01/06 11:52:31;;;;;;;1.00;0.90;;;3.40;99.90;;;;;;5114098;28;20179;-53
2021/01/06 11:55:11;;;;;;;1.00;0.63;;;3.30;99.90;;;;;;5114341;28;20209;-53
2021/01/06 11:57:46;;;;;;;0.75;0.60;;;3.30;99.90;;;;;;5113935;28;20171;-53
2021/01/06 12:00:26;;;;;;;0.98;0.70;;;3.30;99.90;;;;;;5113783;28;20263;-54
2021/01/06 12:03:19;;;;;;;1.92;0.52;;;3.30;99.90;;;;;;5113950;28;20273;-49
2021/01/06 12:06:02;;;;;;;1.20;0.90;;;3.30;99.90;;;;;;5130958;27;20213;-55
2021/01/06 12:08:48;;;;;;;1.70;1.25;;;3.20;99.90;;;;;;5115996;27;20243;-51
2021/01/06 12:11:23;;;;;;;1.15;1.00;;;3.20;99.90;;;;;;5134460;27;20216;-50
2021/01/06 12:13:57;;;;;;;1.85;1.02;;;3.30;99.90;;;;;;5134093;27;20587;-53
2021/01/06 12:16:33;;;;;;;1.52;1.25;;;3.40;99.90;;;;;;5133950;27;20278;-53
2021/01/06 12:19:12;;;;;;;0.93;0.80;;;3.30;99.90;;;;;;5133545;27;20566;-55
2021/01/06 12:21:52;;;;;;;1.05;0.70;;;3.30;99.90;;;;;;5134743;27;20241;-52
2021/01/06 12:24:47;;;;;;;0.70;0.50;;;3.30;99.90;;;;;;5134211;27;20170;-55
2021/01/06 12:27:40;;;;;;;1.02;0.70;;;3.30;99.90;;;;;;5133883;27;20268;-53
2021/01/06 12:30:35;;;;;;;0.80;0.52;;;3.30;99.90;;;;;;5131096;27;20222;-53
2021/01/06 12:33:15;;;;;;;1.38;0.80;;;3.30;99.90;;;;;;5135506;27;20732;-58
2021/01/06 12:35:45;;;;;;;1.38;1.25;;;3.40;99.90;;;;;;5134667;27;20268;-55
2021/01/06 12:38:23;;;;;;;1.00;0.90;;;3.40;99.90;;;;;;5134599;27;20186;-51
2021/01/06 12:41:06;;;;;;;1.92;1.30;;;3.40;99.90;;;;;;5133608;27;20282;-51
2021/01/06 12:43:38;;;;;;;1.23;0.88;;;3.40;99.90;;;;;;5133309;27;20170;-53
2021/01/06 12:46:11;;;;;;;1.50;1.17;;;3.30;99.90;;;;;;5133317;27;20178;-57
2021/01/06 12:48:56;;;;;;;1.92;1.33;;;3.30;99.90;;;;;;5133618;27;20231;-53
2021/01/06 12:51:26;;;;;;;3.28;1.27;;;3.20;99.90;;;;;;5133057;27;20210;-53
2021/01/06 12:53:58;;;;;;;1.58;1.42;;;3.10;99.90;;;;;;5132605;27;20190;-53
2021/01/06 12:56:33;;;;;;;2.70;1.50;;;3.10;99.90;;;;;;5132965;27;20202;-50
2021/01/06 12:59:06;;;;;;;0.90;0.73;;;3.00;99.90;;;;;;5133531;27;20221;-50
2021/01/06 13:01:43;;;;;;;4.55;1.70;;;3.00;99.90;;;;;;5133371;27;20208;-54
2021/01/06 13:04:13;;;;;;;1.05;0.85;;;3.00;99.90;;;;;;5134729;27;20213;-54
2021/01/06 13:06:46;;;;;;;1.13;0.95;;;3.00;99.90;;;;;;5134702;27;20380;-54
2021/01/06 13:09:37;;;;;;;1.08;0.93;;;3.00;99.90;;;;;;5134476;27;20181;-51
2021/01/06 13:12:23;;;;;;;1.75;0.77;;;3.00;99.90;;;;;;5134600;27;20170;-50
2021/01/06 13:15:00;;;;;;;2.08;1.20;;;3.10;99.90;;;;;;5134014;27;20688;-54
2021/01/06 13:17:31;;;;;;;1.23;0.82;;;3.10;99.90;;;;;;5115622;28;20690;-57
2021/01/06 13:20:24;;;;;;;1.00;0.85;;;3.00;99.90;;;;;;5133546;27;20222;-53
2021/01/06 13:22:56;;;;;;;1.23;1.00;;;3.00;99.90;;;;;;5134379;27;20555;-55
2021/01/06 13:25:37;;;;;;;1.10;0.90;;;3.00;99.90;;;;;;5134503;27;20260;-56
2021/01/06 13:28:12;;;;;;;1.50;1.05;;;2.90;99.90;;;;;;5134847;27;20171;-53
2021/01/06 13:30:45;;;;;;;2.08;0.95;;;2.90;99.90;;;;;;5134603;27;20201;-54
2021/01/06 13:33:32;;;;;;;1.10;0.80;;;3.00;99.90;;;;;;5134599;27;20582;-55
2021/01/06 13:36:17;;;;;;;1.00;0.73;;;2.90;99.90;;;;;;5134165;27;20170;-50
2021/01/06 13:39:03;;;;;;;1.10;0.82;;;2.90;99.90;;;;;;5134197;27;20201;-56
2021/01/06 13:41:34;;;;;;;3.25;2.33;;;2.90;99.90;;;;;;5134111;27;20206;-56